Time;durP1;ratioP1;P1;durP2;ratioP2;P2;SDS_P1;SDS_P2;PMS_P1;PMS_P2;Temp;Humidity;BMP_temperature;BMP_pressure;BME280_temperature;BME280_humidity;BME280_pressure;Samples;Min_cycle;Max_cycle;Signal;HPM_P1;HPM_P2
2022/01/09 00:00:15;;;;;;;0.60;0.60;;;;;;;3.68;85.58;96823.91;4917323;29;20125;-70
2022/01/09 00:02:41;;;;;;;0.68;0.68;;;;;;;3.56;87.75;96819.06;4917312;29;20030;-70
2022/01/09 00:05:08;;;;;;;0.50;0.50;;;;;;;3.50;90.36;96819.19;4917133;29;20131;-69
2022/01/09 00:07:33;;;;;;;0.77;0.65;;;;;;;3.45;91.70;96806.50;4916845;29;20028;-70
2022/01/09 00:09:59;;;;;;;0.50;0.50;;;;;;;3.42;91.28;96801.44;4916970;29;20134;-70
2022/01/09 00:12:25;;;;;;;0.38;0.38;;;;;;;3.52;92.99;96802.06;4917184;29;20503;-69
2022/01/09 00:14:51;;;;;;;0.50;0.50;;;;;;;3.54;91.02;96805.47;4916998;29;20055;-69
2022/01/09 00:17:16;;;;;;;0.70;0.70;;;;;;;3.66;90.91;96794.09;4916953;29;20028;-69
2022/01/09 00:19:43;;;;;;;0.40;0.40;;;;;;;3.67;89.81;96791.47;4916924;29;20076;-69
2022/01/09 00:22:08;;;;;;;0.50;0.50;;;;;;;3.70;90.52;96786.31;4916796;29;20032;-69
2022/01/09 00:24:33;;;;;;;0.50;0.50;;;;;;;3.77;91.07;96782.72;4917091;29;20028;-69
2022/01/09 00:26:59;;;;;;;0.50;0.50;;;;;;;3.73;91.77;96775.16;4916766;29;20036;-69
2022/01/09 00:29:24;;;;;;;0.40;0.40;;;;;;;3.68;91.80;96775.25;4916813;29;20402;-69
2022/01/09 00:31:50;;;;;;;0.50;0.50;;;;;;;3.74;91.65;96752.06;4916582;29;20079;-69
2022/01/09 00:34:15;;;;;;;0.77;0.77;;;;;;;3.81;89.17;96761.28;4916684;29;20028;-69
2022/01/09 00:36:41;;;;;;;0.52;0.52;;;;;;;3.79;91.37;96749.41;4916370;29;20095;-69
2022/01/09 00:39:06;;;;;;;0.50;0.50;;;;;;;3.93;90.97;96752.47;4916732;29;20028;-69
2022/01/09 00:41:31;;;;;;;1.35;0.75;;;;;;;3.78;90.68;96758.81;4916484;29;20505;-69
2022/01/09 00:43:57;;;;;;;0.40;0.40;;;;;;;3.76;92.03;96745.16;4916606;29;20036;-69
2022/01/09 00:46:22;;;;;;;0.65;0.65;;;;;;;3.81;90.40;96738.22;4916404;29;20477;-69
2022/01/09 00:48:48;;;;;;;0.50;0.50;;;;;;;3.92;90.27;96737.13;4916452;29;20020;-69
2022/01/09 00:51:13;;;;;;;0.50;0.50;;;;;;;3.80;91.38;96741.66;4916516;29;20024;-69
2022/01/09 00:53:38;;;;;;;0.50;0.50;;;;;;;3.90;90.45;96736.31;4916637;29;20527;-69
2022/01/09 00:56:04;;;;;;;0.52;0.52;;;;;;;3.79;91.49;96740.00;4916448;29;20557;-69
2022/01/09 00:58:29;;;;;;;0.40;0.40;;;;;;;3.84;93.38;96733.03;4915828;29;20479;-69
2022/01/09 08:00:58;;;;;;;0.60;0.60;;;;;;;2.93;98.46;97348.97;5634386;23;20286;-71
2022/01/09 08:03:24;;;;;;;0.50;0.50;;;;;;;2.92;97.48;97352.41;4917374;29;20386;-71
2022/01/09 08:05:49;;;;;;;0.50;0.50;;;;;;;2.95;97.41;97358.34;4916982;29;20028;-71
2022/01/09 08:08:15;;;;;;;0.50;0.50;;;;;;;2.92;97.45;97360.94;4916612;29;20450;-71
2022/01/09 08:10:40;;;;;;;0.55;0.55;;;;;;;2.98;97.16;97377.91;4917203;29;20028;-71
2022/01/09 08:13:05;;;;;;;0.40;0.40;;;;;;;3.14;96.61;97379.44;4917212;29;20024;-71
2022/01/09 08:15:31;;;;;;;0.40;0.40;;;;;;;3.29;96.24;97386.13;4917718;29;20087;-68
2022/01/09 08:17:56;;;;;;;0.55;0.55;;;;;;;3.25;94.88;97385.31;4917097;29;20068;-68
2022/01/09 08:20:22;;;;;;;3.72;1.55;;;;;;;3.38;94.83;97387.69;4916845;29;20024;-68
2022/01/09 08:22:47;;;;;;;0.70;0.70;;;;;;;3.45;93.48;97397.03;4917292;29;20405;-68
2022/01/09 08:25:15;;;;;;;7.88;1.35;;;;;;;3.62;92.56;97400.19;4917096;29;20028;-68
2022/01/09 08:27:42;;;;;;;0.57;0.57;;;;;;;3.53;91.88;97395.19;4917117;29;20028;-68
2022/01/09 08:30:09;;;;;;;1.55;1.45;;;;;;;3.59;90.45;97407.94;4916679;29;20027;-68
2022/01/09 08:32:34;;;;;;;0.50;0.50;;;;;;;3.61;89.76;97411.31;4916899;29;20064;-68
2022/01/09 08:35:01;;;;;;;0.93;0.93;;;;;;;3.65;89.37;97407.84;4916669;29;20111;-69
2022/01/09 08:37:26;;;;;;;0.40;0.40;;;;;;;3.79;88.84;97413.66;4916425;29;20473;-69
2022/01/09 08:39:52;;;;;;;0.70;0.70;;;;;;;3.90;87.12;97415.22;4916560;29;20024;-67
2022/01/09 08:42:17;;;;;;;2.60;1.23;;;;;;;3.86;88.28;97422.94;4882525;29;20040;-68
2022/01/09 08:44:42;;;;;;;1.35;1.35;;;;;;;3.97;86.80;97432.22;4897759;29;20032;-68
2022/01/09 08:47:09;;;;;;;0.60;0.60;;;;;;;3.95;85.57;97431.38;4897653;29;20032;-67
2022/01/09 08:49:35;;;;;;;0.50;0.50;;;;;;;4.02;84.52;97435.56;4897664;29;20032;-68
2022/01/09 08:52:01;;;;;;;1.27;0.68;;;;;;;4.08;83.87;97443.16;4897542;29;20029;-67
2022/01/09 08:54:27;;;;;;;0.60;0.60;;;;;;;4.11;84.68;97435.44;4897637;29;20375;-68
2022/01/09 08:56:52;;;;;;;0.50;0.50;;;;;;;4.27;81.70;97439.47;4897356;29;20036;-67
2022/01/09 08:59:19;;;;;;;1.02;1.02;;;;;;;4.63;82.25;97438.03;4897615;29;20032;-68
2022/01/09 09:01:45;;;;;;;0.73;0.73;;;;;;;4.72;80.80;97446.47;4897256;29;20028;-68
2022/01/09 09:04:10;;;;;;;0.45;0.45;;;;;;;4.56;79.20;97461.25;4897497;29;20035;-68
2022/01/09 09:06:36;;;;;;;2.20;1.02;;;;;;;4.58;79.82;97464.63;4897210;29;20445;-68
2022/01/09 09:09:01;;;;;;;0.93;0.55;;;;;;;4.66;78.08;97465.38;4897341;29;20516;-68
2022/01/09 09:11:26;;;;;;;0.57;0.57;;;;;;;4.68;79.11;97481.56;4897159;29;20478;-68
2022/01/09 09:13:52;;;;;;;4.45;2.10;;;;;;;4.76;78.28;97477.19;4897424;29;20032;-68
2022/01/09 09:16:17;;;;;;;0.75;0.75;;;;;;;4.83;76.88;97481.34;4897100;29;20032;-68
2022/01/09 09:18:43;;;;;;;0.68;0.63;;;;;;;4.86;75.70;97483.84;4897161;29;20035;-68
2022/01/09 09:21:10;;;;;;;0.68;0.68;;;;;;;5.22;75.82;97489.25;4896732;29;20049;-68
2022/01/09 09:23:36;;;;;;;0.57;0.57;;;;;;;5.18;74.42;97497.88;4897230;29;20029;-68
2022/01/09 09:26:01;;;;;;;2.05;1.88;;;;;;;5.13;72.89;97490.25;4896991;29;20447;-68
2022/01/09 09:28:26;;;;;;;0.70;0.70;;;;;;;5.14;72.27;97504.78;4897122;29;20035;-68
2022/01/09 09:30:52;;;;;;;0.50;0.50;;;;;;;5.17;73.24;97498.75;4897083;29;20032;-68
2022/01/09 09:33:17;;;;;;;9.23;2.20;;;;;;;4.88;72.43;97504.34;4897000;29;20040;-68
2022/01/09 09:35:43;;;;;;;2.05;1.95;;;;;;;4.84;74.68;97513.00;4896805;29;20036;-68
2022/01/09 09:38:08;;;;;;;2.05;0.88;;;;;;;5.07;71.86;97510.88;4896813;29;20029;-68
2022/01/09 09:40:33;;;;;;;0.60;0.60;;;;;;;5.26;73.56;97518.28;4897025;29;20032;-68
2022/01/09 09:42:59;;;;;;;0.80;0.80;;;;;;;4.75;72.67;97508.84;4896985;29;20490;-68
2022/01/09 09:45:25;;;;;;;0.52;0.52;;;;;;;4.66;73.99;97524.38;4897039;29;20501;-68
2022/01/09 09:47:50;;;;;;;1.33;1.27;;;;;;;4.65;74.98;97517.56;4896728;29;20103;-68
2022/01/09 09:50:18;;;;;;;1.65;0.90;;;;;;;4.52;76.60;97521.16;4896678;29;20029;-68
2022/01/09 09:52:44;;;;;;;0.40;0.40;;;;;;;4.62;76.76;97525.28;4896864;29;20153;-68
2022/01/09 09:55:11;;;;;;;2.65;1.20;;;;;;;4.53;77.66;97528.81;4897007;29;20028;-68
2022/01/09 09:57:36;;;;;;;0.60;0.60;;;;;;;4.39;77.72;97541.84;4896737;29;20478;-68
2022/01/09 10:00:33;;;;;;;1.73;1.67;;;;;;;4.58;77.82;97537.31;4896845;29;20025;-69
2022/01/09 10:03:00;;;;;;;2.15;2.03;;;;;;;5.37;76.75;97535.22;4900144;29;20126;-68
2022/01/09 10:05:32;;;;;;;7.75;0.98;;;;;;;5.92;73.43;97534.22;4896747;29;20031;-68
2022/01/09 10:08:08;;;;;;;0.57;0.57;;;;;;;6.34;70.53;97547.09;4896478;29;20029;-68
2022/01/09 10:10:35;;;;;;;0.40;0.40;;;;;;;6.92;70.08;97532.94;4896600;29;20088;-68
2022/01/09 10:13:19;;;;;;;0.55;0.55;;;;;;;6.41;70.42;97543.50;4896736;29;20037;-69
2022/01/09 10:15:49;;;;;;;0.45;0.45;;;;;;;5.75;72.63;97546.50;4896755;29;20398;-68
2022/01/09 10:18:48;;;;;;;3.10;1.67;;;;;;;5.43;74.23;97548.81;4896836;29;20160;-69
2022/01/09 10:21:18;;;;;;;1.10;1.10;;;;;;;5.47;74.58;97545.34;4896677;29;20478;-68
2022/01/09 10:24:07;;;;;;;5.05;1.30;;;;;;;5.52;75.19;97548.66;4896654;29;20036;-69
2022/01/09 10:26:38;;;;;;;0.60;0.60;;;;;;;5.39;76.39;97558.28;4896513;29;20470;-69
2022/01/09 10:29:07;;;;;;;2.30;0.85;;;;;;;5.43;76.42;97559.09;4896594;29;20028;-68
2022/01/09 10:31:42;;;;;;;0.55;0.55;;;;;;;5.23;76.56;97567.13;4898083;29;20028;-69
2022/01/09 10:34:10;;;;;;;1.02;0.63;;;;;;;5.18;75.75;97567.22;4900461;29;20024;-69
2022/01/09 10:36:36;;;;;;;0.45;0.45;;;;;;;5.16;76.81;97566.38;4899704;29;20088;-69
2022/01/09 10:39:07;;;;;;;13.00;1.63;;;;;;;5.10;77.25;97567.31;4900090;29;20037;-69
2022/01/09 10:41:55;;;;;;;1.08;1.08;;;;;;;5.02;77.88;97574.28;4899983;29;20033;-68
2022/01/09 10:44:27;;;;;;;0.65;0.65;;;;;;;4.73;77.92;97569.59;4900255;29;20116;-69
2022/01/09 10:47:04;;;;;;;0.50;0.50;;;;;;;4.52;78.82;97572.47;4899971;29;20039;-68
2022/01/09 10:49:48;;;;;;;0.55;0.55;;;;;;;4.35;79.25;97581.22;4899860;29;20515;-69
2022/01/09 10:52:25;;;;;;;0.40;0.40;;;;;;;4.35;80.20;97591.50;4899779;29;20037;-68
2022/01/09 10:54:52;;;;;;;4.57;0.65;;;;;;;4.41;80.51;97603.38;4899913;29;20032;-69
2022/01/09 10:57:28;;;;;;;1.35;0.90;;;;;;;4.20;81.71;97601.91;4899553;29;20028;-69
2022/01/09 11:00:13;;;;;;;0.40;0.40;;;;;;;3.95;84.09;97615.88;4899863;29;20479;-68
2022/01/09 11:02:39;;;;;;;1.17;1.08;;;;;;;3.86;85.71;97617.66;4899498;29;20109;-68
2022/01/09 11:05:05;;;;;;;0.40;0.40;;;;;;;3.93;85.74;97612.47;4899668;29;20036;-69
2022/01/09 11:07:31;;;;;;;0.50;0.50;;;;;;;3.95;87.82;97610.75;4899099;29;20029;-68
2022/01/09 11:09:58;;;;;;;4.07;1.30;;;;;;;3.93;86.11;97622.72;4899412;29;20031;-68
2022/01/09 11:12:26;;;;;;;1.50;1.40;;;;;;;3.91;86.95;97624.44;4899365;29;20494;-68
2022/01/09 11:14:53;;;;;;;0.70;0.70;;;;;;;4.14;85.49;97622.50;4899568;29;20028;-68
2022/01/09 11:17:21;;;;;;;1.65;0.95;;;;;;;4.29;87.08;97622.31;4899187;29;20534;-69
2022/01/09 11:19:46;;;;;;;0.52;0.52;;;;;;;4.25;86.84;97620.63;4899389;29;20036;-68
2022/01/09 11:22:12;;;;;;;10.88;1.10;;;;;;;4.53;85.00;97610.06;4899409;29;20032;-69
2022/01/09 11:24:54;;;;;;;1.05;0.98;;;;;;;4.73;84.36;97608.06;4899343;29;20051;-69
2022/01/09 11:27:57;;;;;;;4.15;2.00;;;;;;;4.86;84.90;97611.31;4899034;29;20506;-68
2022/01/09 11:30:52;;;;;;;1.08;1.08;;;;;;;5.17;83.50;97606.56;4899263;29;20089;-69
2022/01/09 11:33:29;;;;;;;0.60;0.60;;;;;;;5.48;81.24;97606.09;4899138;29;20037;-68
2022/01/09 11:36:18;;;;;;;0.80;0.80;;;;;;;5.34;81.82;97607.16;4898776;29;20024;-68
2022/01/09 11:38:45;;;;;;;0.40;0.40;;;;;;;5.46;81.14;97611.25;4898822;29;20052;-69
2022/01/09 11:41:18;;;;;;;1.20;1.13;;;;;;;5.16;82.58;97612.59;4899045;29;20039;-69
2022/01/09 11:44:01;;;;;;;1.10;1.10;;;;;;;5.07;81.54;97613.56;4898005;29;20032;-68
2022/01/09 11:46:29;;;;;;;0.75;0.55;;;;;;;4.69;82.82;97610.69;4898806;29;20028;-68
2022/01/09 11:48:54;;;;;;;0.63;0.55;;;;;;;4.47;83.98;97615.28;4898847;29;20120;-68
2022/01/09 11:51:25;;;;;;;0.60;0.60;;;;;;;4.41;84.03;97605.94;4898729;29;20103;-68
2022/01/09 11:54:08;;;;;;;2.10;1.52;;;;;;;4.68;84.84;97609.84;4913169;29;20532;-68
2022/01/09 11:56:56;;;;;;;0.60;0.60;;;;;;;4.85;84.23;97604.50;4898593;29;20052;-68
2022/01/09 11:59:37;;;;;;;0.57;0.57;;;;;;;4.99;82.72;97588.91;4898860;29;20044;-68
2022/01/09 12:02:11;;;;;;;1.27;1.27;;;;;;;5.12;82.87;97595.53;4898577;29;20111;-68
2022/01/09 12:04:45;;;;;;;0.60;0.60;;;;;;;5.32;80.27;97592.66;4898568;29;20092;-68
2022/01/09 12:07:12;;;;;;;0.50;0.50;;;;;;;5.40;81.34;97581.38;4892186;29;20017;-69
2022/01/09 12:09:42;;;;;;;0.55;0.55;;;;;;;5.54;79.32;97582.88;4898207;29;20088;-68
2022/01/09 12:12:19;;;;;;;2.58;2.38;;;;;;;5.65;78.83;97580.94;4898428;29;20516;-69
2022/01/09 12:17:43;;;;;;;5.57;1.10;;;;;;;6.37;76.25;97580.44;4905787;29;20047;-69
2022/01/09 12:20:12;;;;;;;0.50;0.50;;;;;;;6.20;75.56;97592.81;4898380;29;20390;-69
2022/01/09 12:22:44;;;;;;;3.28;1.38;;;;;;;5.67;78.54;97579.22;4898394;29;20050;-68
2022/01/09 12:25:33;;;;;;;0.60;0.60;;;;;;;5.57;81.99;97564.84;4898217;29;20084;-68
2022/01/09 12:28:04;;;;;;;0.93;0.93;;;;;;;5.30;83.02;97573.84;4898038;29;20482;-68
2022/01/09 12:30:44;;;;;;;0.60;0.60;;;;;;;5.24;81.28;97572.25;4897918;29;20107;-68
2022/01/09 12:33:20;;;;;;;0.40;0.40;;;;;;;5.23;80.07;97562.84;4898264;29;20036;-68
2022/01/09 12:35:59;;;;;;;1.40;1.27;;;;;;;5.14;82.92;97568.13;4897514;29;20032;-68
2022/01/09 12:38:27;;;;;;;2.20;2.00;;;;;;;5.27;81.76;97563.63;4897792;29;20024;-68
2022/01/09 12:41:04;;;;;;;0.50;0.50;;;;;;;5.40;80.92;97560.81;4897742;29;20036;-69
2022/01/09 12:43:32;;;;;;;1.42;1.38;;;;;;;5.31;80.94;97566.13;4897937;29;20047;-68
2022/01/09 12:45:58;;;;;;;0.65;0.65;;;;;;;5.11;82.48;97565.59;4897711;29;20037;-68
2022/01/09 12:48:29;;;;;;;0.57;0.57;;;;;;;4.95;83.34;97574.41;4912270;29;20043;-70
2022/01/09 12:50:56;;;;;;;1.45;1.35;;;;;;;4.73;82.40;97567.03;4897400;29;20530;-70
2022/01/09 12:53:22;;;;;;;0.60;0.60;;;;;;;4.62;83.32;97576.59;4897587;29;20377;-70
2022/01/09 12:56:01;;;;;;;1.98;1.15;;;;;;;4.62;81.94;97579.16;4897257;29;20024;-70
2022/01/09 12:58:32;;;;;;;3.83;0.93;;;;;;;4.57;83.01;97575.81;4897840;29;20041;-69
2022/01/09 13:01:00;;;;;;;0.93;0.93;;;;;;;4.44;83.36;97580.25;4897375;29;20035;-74
2022/01/09 13:03:30;;;;;;;0.60;0.60;;;;;;;4.50;83.14;97584.47;4897534;29;20032;-75
2022/01/09 13:06:07;;;;;;;0.93;0.93;;;;;;;4.34;83.64;97594.91;4897279;29;20031;-74
2022/01/09 13:08:34;;;;;;;0.40;0.40;;;;;;;4.41;83.66;97594.84;4897276;29;20025;-74
2022/01/09 13:11:05;;;;;;;0.82;0.82;;;;;;;4.50;83.37;97595.56;4897289;29;20068;-74
2022/01/09 13:13:32;;;;;;;0.50;0.50;;;;;;;4.73;82.78;97594.41;4911909;29;20024;-74
2022/01/09 13:15:58;;;;;;;0.45;0.45;;;;;;;4.63;82.03;97591.09;4897039;29;20028;-74
2022/01/09 13:18:45;;;;;;;0.47;0.47;;;;;;;4.46;82.84;97593.91;4897308;29;20382;-74
2022/01/09 13:21:19;;;;;;;0.70;0.70;;;;;;;4.50;82.30;97599.84;4897174;29;20025;-74
2022/01/09 13:24:01;;;;;;;0.98;0.98;;;;;;;4.44;83.28;97592.22;4897228;29;20055;-74
2022/01/09 13:26:48;;;;;;;1.00;1.00;;;;;;;4.70;82.15;97603.00;4896916;29;20029;-74
2022/01/09 13:29:19;;;;;;;0.70;0.70;;;;;;;4.77;80.38;97609.72;4897123;29;20049;-74
2022/01/09 13:31:57;;;;;;;0.50;0.50;;;;;;;5.00;82.15;97600.88;4897060;29;20040;-74
2022/01/09 13:34:31;;;;;;;1.02;1.02;;;;;;;4.93;81.47;97605.22;4897155;29;20080;-74
2022/01/09 13:36:58;;;;;;;1.08;1.08;;;;;;;5.06;82.20;97598.19;4896554;29;20024;-69
2022/01/09 13:39:27;;;;;;;0.70;0.70;;;;;;;4.77;83.42;97611.44;4897253;29;20051;-70
2022/01/09 13:41:55;;;;;;;0.50;0.50;;;;;;;4.61;83.01;97623.66;4896859;29;20549;-70
2022/01/09 13:44:23;;;;;;;0.43;0.43;;;;;;;4.72;84.33;97616.63;4896974;29;20075;-69
2022/01/09 13:47:04;;;;;;;0.52;0.52;;;;;;;3.97;84.81;97626.97;4896838;29;20028;-73
2022/01/09 13:49:32;;;;;;;0.82;0.82;;;;;;;3.77;85.31;97630.56;4896877;29;20037;-73
2022/01/09 13:51:59;;;;;;;0.60;0.60;;;;;;;4.17;85.16;97631.88;4896992;29;20096;-73
2022/01/09 13:54:27;;;;;;;0.50;0.50;;;;;;;4.48;83.24;97619.53;4896882;29;20042;-70
2022/01/09 13:57:01;;;;;;;0.52;0.52;;;;;;;4.95;82.28;97623.19;4896633;29;20025;-70
2022/01/09 13:59:38;;;;;;;3.28;1.92;;;;;;;5.09;80.33;97616.13;4896839;29;20466;-70
2022/01/09 14:02:04;;;;;;;0.80;0.80;;;;;;;5.11;80.90;97624.66;4896659;29;20032;-70
2022/01/09 14:04:29;;;;;;;0.50;0.50;;;;;;;5.17;80.57;97624.53;4896774;29;20494;-70
2022/01/09 14:07:12;;;;;;;0.98;0.63;;;;;;;5.26;79.89;97619.28;4899042;29;20071;-70
2022/01/09 14:09:40;;;;;;;0.63;0.63;;;;;;;5.28;79.20;97616.69;4900517;29;20032;-70
2022/01/09 14:12:09;;;;;;;0.68;0.68;;;;;;;5.41;80.01;97623.31;4900610;29;20059;-69
2022/01/09 14:17:31;;;;;;;0.60;0.60;;;;;;;5.67;78.58;97622.91;4880553;29;20052;-70
2022/01/09 14:20:01;;;;;;;1.70;1.60;;;;;;;5.59;79.15;97623.03;4881699;29;20056;-74
2022/01/09 14:22:38;;;;;;;0.50;0.50;;;;;;;5.81;77.10;97613.22;4882003;29;20124;-73
2022/01/09 14:25:13;;;;;;;1.65;1.17;;;;;;;5.75;77.52;97623.59;4886474;29;20032;-74
2022/01/09 14:27:43;;;;;;;1.55;0.60;;;;;;;5.64;78.43;97625.50;4899348;29;20029;-73
2022/01/09 14:30:40;;;;;;;0.68;0.68;;;;;;;5.65;77.70;97632.34;4900351;29;20029;-72
2022/01/09 14:33:12;;;;;;;1.65;0.88;;;;;;;5.72;77.66;97633.94;4892403;29;20106;-71
2022/01/09 14:35:48;;;;;;;0.85;0.63;;;;;;;5.38;77.79;97642.22;4899900;29;20036;-72
2022/01/09 14:38:17;;;;;;;0.68;0.68;;;;;;;5.29;76.26;97633.78;4900046;29;20028;-72
2022/01/09 14:40:53;;;;;;;1.55;0.90;;;;;;;5.16;74.63;97641.66;4900089;29;20031;-72
2022/01/09 14:43:23;;;;;;;0.50;0.50;;;;;;;5.13;76.45;97653.72;4900228;29;20025;-71
2022/01/09 14:45:51;;;;;;;1.45;0.65;;;;;;;5.12;77.37;97646.88;4899653;29;20131;-70
2022/01/09 14:48:25;;;;;;;0.50;0.50;;;;;;;5.17;77.02;97657.91;4900241;29;20056;-70
2022/01/09 14:50:53;;;;;;;0.65;0.65;;;;;;;4.96;75.44;97660.81;4899885;29;20074;-70
2022/01/09 14:53:18;;;;;;;0.60;0.60;;;;;;;4.99;76.59;97659.06;4899959;29;20390;-67
2022/01/09 14:55:45;;;;;;;1.17;0.75;;;;;;;5.02;77.24;97668.41;4914148;29;20028;-68
2022/01/09 14:58:12;;;;;;;1.05;1.05;;;;;;;5.03;76.97;97662.41;4899850;29;20036;-67
2022/01/09 15:00:37;;;;;;;0.73;0.73;;;;;;;5.03;76.83;97677.81;4899787;29;20470;-67
2022/01/09 15:03:04;;;;;;;11.30;1.10;;;;;;;4.81;76.95;97672.97;4899722;29;20043;-68
2022/01/09 15:05:29;;;;;;;0.40;0.40;;;;;;;4.72;78.03;97683.34;4899532;29;20032;-67
2022/01/09 15:07:56;;;;;;;0.57;0.57;;;;;;;4.86;78.81;97676.31;4899220;29;20036;-67
2022/01/09 15:10:22;;;;;;;1.23;1.15;;;;;;;4.85;78.35;97679.75;4899622;29;20033;-68
2022/01/09 15:12:47;;;;;;;0.70;0.70;;;;;;;4.75;78.57;97683.31;4899433;29;20036;-67
2022/01/09 15:15:15;;;;;;;1.77;1.65;;;;;;;4.68;79.28;97691.94;4899399;29;20036;-68
2022/01/09 15:17:42;;;;;;;1.25;0.98;;;;;;;4.75;77.48;97685.88;4896830;29;20033;-67
2022/01/09 15:20:08;;;;;;;2.47;1.45;;;;;;;4.62;78.07;97690.31;4899434;29;20486;-67
2022/01/09 15:22:33;;;;;;;2.63;1.45;;;;;;;4.62;77.64;97699.72;4899331;29;20059;-67
2022/01/09 15:24:59;;;;;;;0.90;0.90;;;;;;;4.65;77.15;97707.41;4899330;29;20389;-67
2022/01/09 15:27:25;;;;;;;1.08;0.70;;;;;;;4.52;78.24;97708.41;4897791;29;20083;-67
2022/01/09 15:29:50;;;;;;;0.52;0.52;;;;;;;4.47;78.27;97713.56;4913761;29;20036;-67
2022/01/09 15:32:15;;;;;;;1.92;1.77;;;;;;;4.44;79.17;97712.75;4899085;29;20510;-76
2022/01/09 15:34:41;;;;;;;1.35;1.33;;;;;;;4.36;79.63;97725.66;4899302;29;20035;-70
2022/01/09 15:37:06;;;;;;;0.63;0.63;;;;;;;4.20;81.56;97726.66;4898593;29;20040;-70
2022/01/09 15:39:33;;;;;;;2.05;1.08;;;;;;;4.00;84.16;97737.09;4898914;29;20033;-68
2022/01/09 15:41:59;;;;;;;0.60;0.60;;;;;;;3.88;85.84;97732.94;4898817;29;20037;-71
2022/01/09 15:44:26;;;;;;;0.50;0.50;;;;;;;3.67;85.63;97744.19;4898982;29;20494;-69
2022/01/09 15:46:51;;;;;;;0.40;0.40;;;;;;;3.67;86.78;97739.06;4898650;29;20032;-69
2022/01/09 15:49:17;;;;;;;0.50;0.50;;;;;;;3.67;86.72;97746.75;4898767;29;20096;-68
2022/01/09 15:51:42;;;;;;;0.95;0.95;;;;;;;3.60;87.71;97757.91;4897559;29;20112;-75
2022/01/09 15:54:08;;;;;;;0.45;0.45;;;;;;;3.56;88.14;97751.97;4897404;29;20025;-72
2022/01/09 15:56:34;;;;;;;0.40;0.40;;;;;;;3.42;89.62;97758.03;4898464;29;20024;-70
2022/01/09 15:58:59;;;;;;;5.40;4.30;;;;;;;3.27;90.34;97770.06;4898518;29;20092;-72
2022/01/09 16:01:25;;;;;;;0.60;0.60;;;;;;;3.22;90.47;97766.69;4898570;29;20035;-69
2022/01/09 16:03:52;;;;;;;0.70;0.70;;;;;;;3.08;90.72;97776.97;4898432;29;20107;-68
2022/01/09 16:06:23;;;;;;;0.50;0.50;;;;;;;3.13;91.98;97776.94;4897799;29;20024;-68
2022/01/09 16:08:58;;;;;;;0.85;0.85;;;;;;;3.12;91.60;97780.38;4898204;29;20438;-68
2022/01/09 16:11:23;;;;;;;0.60;0.60;;;;;;;2.96;92.51;97776.19;4898404;29;20059;-68
2022/01/09 16:13:49;;;;;;;0.50;0.50;;;;;;;2.88;93.34;97783.03;4897417;29;20077;-69
2022/01/09 16:16:14;;;;;;;0.60;0.60;;;;;;;2.89;93.40;97777.06;4897725;29;20124;-70
2022/01/09 16:18:40;;;;;;;0.52;0.52;;;;;;;2.97;94.12;97785.56;4897693;29;20415;-68
2022/01/09 16:21:05;;;;;;;0.70;0.70;;;;;;;2.85;94.28;97781.31;4898093;29;20027;-69
2022/01/09 16:23:30;;;;;;;0.60;0.60;;;;;;;2.68;94.71;97786.50;4898106;29;20028;-70
2022/01/09 16:25:58;;;;;;;0.55;0.55;;;;;;;2.79;94.94;97791.59;4897785;29;20028;-68
2022/01/09 16:28:25;;;;;;;0.93;0.90;;;;;;;2.76;94.62;97787.34;4898000;29;20099;-70
2022/01/09 16:30:51;;;;;;;0.45;0.45;;;;;;;2.78;94.53;97784.78;4897800;29;20490;-69
2022/01/09 16:33:16;;;;;;;0.88;0.88;;;;;;;2.71;94.25;97791.63;4897376;29;20075;-69
2022/01/09 16:35:41;;;;;;;2.25;2.05;;;;;;;2.72;94.02;97793.31;4897368;29;20052;-69
2022/01/09 16:38:07;;;;;;;0.50;0.50;;;;;;;2.60;94.47;97784.81;4897702;29;20023;-70
2022/01/09 16:40:32;;;;;;;3.72;2.08;;;;;;;2.26;96.47;97801.06;4898052;29;20044;-68
2022/01/09 16:42:57;;;;;;;0.65;0.65;;;;;;;2.20;97.28;97803.63;4897912;29;20028;-68
2022/01/09 16:45:23;;;;;;;0.85;0.85;;;;;;;2.44;96.67;97804.47;4897582;29;20460;-69
2022/01/09 16:47:48;;;;;;;0.75;0.70;;;;;;;2.67;95.53;97807.84;4897547;29;20513;-69
2022/01/09 16:50:14;;;;;;;1.95;1.85;;;;;;;2.48;96.08;97818.94;4897524;29;20091;-70
2022/01/09 16:52:39;;;;;;;0.60;0.60;;;;;;;2.41;95.99;97812.13;4897557;29;20382;-69
2022/01/09 16:55:05;;;;;;;0.50;0.50;;;;;;;2.49;95.66;97807.84;4897456;29;20040;-69
2022/01/09 16:57:30;;;;;;;0.60;0.60;;;;;;;2.49;95.00;97818.09;4897407;29;20390;-69
2022/01/09 16:59:56;;;;;;;2.40;0.80;;;;;;;2.41;95.80;97820.63;4897431;29;20035;-69
2022/01/09 17:02:21;;;;;;;0.77;0.77;;;;;;;2.38;96.40;97819.81;4897374;29;20036;-70
2022/01/09 17:04:47;;;;;;;2.05;1.15;;;;;;;2.36;97.00;97811.28;4897189;29;20028;-69
2022/01/09 17:07:12;;;;;;;0.80;0.80;;;;;;;2.39;96.25;97821.50;4896905;29;20024;-68
2022/01/09 17:09:37;;;;;;;0.60;0.60;;;;;;;2.30;95.60;97825.78;4897268;29;20478;-69
2022/01/09 17:12:03;;;;;;;13.02;1.35;;;;;;;2.22;96.70;97830.03;4897158;29;20029;-69
2022/01/09 17:14:28;;;;;;;2.33;1.77;;;;;;;2.28;96.73;97830.03;4897281;29;20084;-68
2022/01/09 17:16:55;;;;;;;0.70;0.70;;;;;;;2.33;95.44;97842.81;4895584;29;20100;-72
2022/01/09 17:19:20;;;;;;;1.17;0.90;;;;;;;2.43;95.60;97829.19;4897207;29;20028;-72
2022/01/09 17:21:46;;;;;;;1.50;1.42;;;;;;;2.47;96.50;97830.88;4897008;29;20497;-71
2022/01/09 17:24:12;;;;;;;1.02;1.00;;;;;;;2.50;95.79;97824.91;4897118;29;20036;-72
2022/01/09 17:26:42;;;;;;;5.00;3.10;;;;;;;2.47;95.21;97827.47;4896833;29;20398;-72
2022/01/09 17:29:09;;;;;;;4.55;3.65;;;;;;;2.61;96.73;97838.53;4897062;29;20040;-71
2022/01/09 17:31:35;;;;;;;1.52;1.48;;;;;;;2.56;95.94;97830.00;4896955;29;20116;-72
2022/01/09 17:34:00;;;;;;;6.95;2.40;;;;;;;2.51;96.16;97829.16;4896865;29;20024;-72
2022/01/09 17:36:26;;;;;;;2.60;2.40;;;;;;;2.33;96.59;97845.38;4896478;29;20033;-72
2022/01/09 17:38:51;;;;;;;3.40;2.35;;;;;;;2.29;96.50;97831.75;4896807;29;20060;-72
2022/01/09 17:41:16;;;;;;;2.70;2.17;;;;;;;2.15;97.32;97838.56;4896196;29;20031;-71
2022/01/09 17:43:42;;;;;;;1.17;1.17;;;;;;;2.11;96.83;97847.06;4896828;29;20534;-72
2022/01/09 17:46:07;;;;;;;1.60;1.50;;;;;;;2.07;96.22;97845.34;4896658;29;20125;-72
2022/01/09 17:48:34;;;;;;;1.25;1.25;;;;;;;2.10;95.79;97845.38;4896850;29;20443;-72
2022/01/09 17:51:00;;;;;;;1.88;1.27;;;;;;;2.08;96.31;97843.66;4896715;29;20033;-72
2022/01/09 17:53:27;;;;;;;1.25;1.25;;;;;;;1.95;96.94;97848.75;4895481;29;20505;-72
2022/01/09 17:55:55;;;;;;;2.08;1.08;;;;;;;2.00;96.97;97851.31;4896584;29;20035;-72
2022/01/09 17:58:21;;;;;;;0.80;0.80;;;;;;;1.99;96.98;97847.06;4911110;29;20510;-72
2022/01/09 18:00:46;;;;;;;3.03;2.58;;;;;;;1.97;98.38;97854.72;4911329;29;20058;-72
2022/01/09 18:03:12;;;;;;;0.75;0.75;;;;;;;1.90;97.37;97857.28;4896639;29;20024;-72
2022/01/09 18:05:37;;;;;;;1.17;1.10;;;;;;;1.82;97.42;97858.97;4896300;29;20084;-72
2022/01/09 18:08:03;;;;;;;0.90;0.90;;;;;;;1.69;97.95;97858.06;4896569;29;20048;-72
2022/01/09 18:10:28;;;;;;;2.08;1.88;;;;;;;1.46;99.10;97863.13;4896553;29;20029;-72
2022/01/09 18:12:53;;;;;;;0.82;0.82;;;;;;;1.50;98.93;97862.31;4896777;29;20104;-72
2022/01/09 18:15:19;;;;;;;1.27;1.17;;;;;;;1.48;99.74;97869.09;4896376;29;20029;-72
2022/01/09 18:17:44;;;;;;;0.90;0.90;;;;;;;1.61;98.72;97868.28;4896497;29;20039;-72
2022/01/09 18:20:10;;;;;;;1.50;1.50;;;;;;;1.52;98.91;97875.91;4896499;29;20040;-72
2022/01/09 18:22:36;;;;;;;0.80;0.80;;;;;;;1.60;98.10;97874.25;4896620;29;20744;-72
2022/01/09 18:25:03;;;;;;;0.60;0.60;;;;;;;1.54;98.14;97869.09;4896481;29;20489;-72
2022/01/09 18:27:29;;;;;;;0.75;0.75;;;;;;;1.67;98.65;97870.00;4896369;29;20033;-72
2022/01/09 18:29:55;;;;;;;0.85;0.85;;;;;;;1.94;99.49;97872.63;4896478;29;20032;-71
2022/01/09 18:32:20;;;;;;;0.93;0.93;;;;;;;1.74;97.68;97879.34;4896471;29;20024;-72
2022/01/09 18:34:46;;;;;;;1.08;0.93;;;;;;;1.71;97.80;97887.88;4896160;29;20043;-72
2022/01/09 18:37:11;;;;;;;0.70;0.70;;;;;;;1.87;97.37;97885.34;4896116;29;20020;-72
2022/01/09 18:39:36;;;;;;;1.30;1.25;;;;;;;1.85;96.88;97895.56;4896296;29;20478;-72
2022/01/09 18:42:04;;;;;;;1.60;1.02;;;;;;;1.83;97.49;97893.84;4896446;29;20028;-72
2022/01/09 18:44:31;;;;;;;7.15;1.50;;;;;;;1.93;97.50;97893.03;4896410;29;20111;-72
2022/01/09 18:46:57;;;;;;;1.55;1.48;;;;;;;1.88;97.94;97894.72;4896217;29;20036;-69
2022/01/09 18:49:22;;;;;;;6.57;1.00;;;;;;;1.91;97.35;97904.94;4896329;29;20484;-69
2022/01/09 18:51:48;;;;;;;1.70;1.60;;;;;;;2.00;98.17;97900.72;4897018;29;20064;-70
2022/01/09 18:54:15;;;;;;;2.13;1.92;;;;;;;1.95;98.80;97899.00;4899829;29;20028;-69